• Join FlightAware (Why Join?)
  • Login
  • US Flag 
01:59PM EST


 

Airport Tracker/Info


-or-


 

Live Flight TrackerFlight Track Log ✈ SWA3939 ✈ 20-Apr-2013 ✈ KSJC - KSAN

Flight Track Log - Related Links

Times and Time Zones

All times are in EDT time to prevent confusion due to time zone crossing. See the SWA3939 flight status page for this flight to view local times or setup timezone preferences in your user account.

Time Position Orientation Groundspeed Altitude Reporting Facility
EDT Latitude Longitude Course Direction KTS MPH feet Rate Location/Type
03:43PM 37.4167 -121.9833 133° Southeast 202 232 2,100  Level Northern Cal TRACON
03:44PM 37.4333 -121.9333 67° East 223 257 3,100 1,320 Climbing Northern Cal TRACON
03:45PM 37.4000 -121.8833 130° Southeast 226 260 4,800 1,680 Climbing Northern Cal TRACON
03:46PM 37.3386 -121.8008 133° Southeast 248 285 7,100 1,920 Climbing Oakland Center
03:47PM 37.2772 -121.7328 139° Southeast 290 334 9,400 2,040 Climbing Oakland Center
03:48PM 36.9104 -121.4324 133° Southeast  Level Estimated
03:48PM 37.2086 -121.6564 138° Southeast 330 380 11,300  Level Oakland Center
03:49PM 37.1339 -121.5742 139° Southeast 359 413 13,900 2,700 Climbing Oakland Center
03:50PM 37.0411 -121.4744 139° Southeast 376 433 16,800 2,460 Climbing Oakland Center
03:51PM 36.9600 -121.3828 138° Southeast 393 452 19,000 2,040 Climbing Oakland Center
03:52PM 36.8747 -121.2883 138° Southeast 406 467 21,000 1,920 Climbing Oakland Center
03:53PM 36.7947 -121.2042 140° Southeast 415 478 23,000 1,980 Climbing Oakland Center
03:54PM 36.7058 -121.1100 140° Southeast 419 482 25,100 2,220 Climbing Oakland Center
03:55PM 36.5989 -120.9942 139° Southeast 423 487 27,600 2,100 Climbing Oakland Center
03:56PM 36.5097 -120.8950 138° Southeast 428 493 29,500 1,620 Climbing Oakland Center
03:57PM 36.4186 -120.7939 138° Southeast 436 502 31,000 1,440 Climbing Oakland Center
03:58PM 36.3242 -120.6953 140° Southeast 443 510 32,500 1,260 Climbing Oakland Center
03:59PM 36.2286 -120.5956 140° Southeast 447 514 33,700 1,080 Climbing Oakland Center
04:00PM 36.1314 -120.4911 139° Southeast 458 527 34,800 540 Climbing Oakland Center
04:01PM 36.0333 -120.3825 138° Southeast 466 536 34,900  Climbing Oakland Center
04:02PM 35.9372 -120.2842 140° Southeast 450 518 34,900  Level Oakland Center
04:03PM 35.8419 -120.1831 139° Southeast 450 518 35,000  Climbing Oakland Center
04:04PM 35.7472 -120.0836 140° Southeast 445 512 35,000  Level Oakland Center
04:05PM 35.6500 -119.9842 140° Southeast 448 516 35,000  Level Oakland Center
04:06PM 35.5369 -119.9233 156° South 435 501 35,000  Level Oakland Center
04:07PM 35.3961 -119.8592 160° South 442 509 35,000  Level Oakland Center
04:08PM 35.2800 -119.8042 159° South 444 511 35,000  Level Oakland Center
04:09PM 35.1836 -119.7067 140° Southeast 451 519 35,000  Level Oakland Center
04:10PM 35.0883 -119.6078 140° Southeast 448 516 35,000  Level Oakland Center
04:12PM 34.9731 -119.4881 140° Southeast 452 520 35,000  Level Los Angeles Center
04:13PM 34.8769 -119.3900 140° Southeast 451 519 35,000  Level Los Angeles Center
04:14PM 34.7822 -119.2919 140° Southeast 450 518 35,000  Level Los Angeles Center
04:15PM 34.6861 -119.1928 140° Southeast 452 520 35,000  Level Los Angeles Center
04:16PM 34.5803 -119.0883 141° Southeast 451 519 35,000  Level Los Angeles Center
04:17PM 34.4858 -118.9908 140° Southeast 446 513 35,000  Level Los Angeles Center
04:18PM 34.3894 -118.8936 140° Southeast 450 518 35,000  Level Los Angeles Center
04:19PM 34.2747 -118.7775 140° Southeast 448 516 35,000  Level Los Angeles Center
04:20PM 34.1781 -118.6808 140° Southeast 450 518 35,000  Level Los Angeles Center
04:21PM 34.0819 -118.5839 140° Southeast 451 519 35,000 -300 Level Los Angeles Center
04:22PM 33.9897 -118.4831 138° Southeast 447 514 34,400 -780 Descending Los Angeles Center
04:23PM 33.9031 -118.3756 134° Southeast 444 511 33,500 -1,320 Descending Los Angeles Center
04:24PM 33.8136 -118.2706 136° Southeast 445 512 31,700 -1,860 Descending Los Angeles Center
04:25PM 33.7083 -118.1414 134° Southeast 437 503 29,300 -1,920 Descending Los Angeles Center
04:26PM 33.6169 -118.0356 136° Southeast 452 520 27,400 -2,160 Descending Los Angeles Center
04:27PM 33.5164 -117.9136 135° Southeast 427 491 24,900 -2,220 Descending Los Angeles Center
04:28PM 33.4333 -117.8000 131° Southeast 412 474 22,800 -2,040 Descending Southern California TRACON
04:29PM 33.3500 -117.7167 140° Southeast 414 476 20,900 -2,160 Descending Southern California TRACON
04:30PM 33.2833 -117.6333 134° Southeast 400 460 18,700 -2,280 Descending Southern California TRACON
04:31PM 33.2000 -117.5333 135° Southeast 395 455 16,400 -2,280 Descending Southern California TRACON
04:32PM 33.1167 -117.4500 140° Southeast 380 437 14,200 -2,340 Descending Southern California TRACON
04:33PM 33.0333 -117.3833 146° Southeast 365 420 11,700 -1,920 Descending Southern California TRACON
04:34PM 32.9500 -117.3167 146° Southeast 338 389 10,400 -1,080 Descending Southern California TRACON
04:35PM 32.8833 -117.2667 148° Southeast 286 329 9,600 -900 Descending Southern California TRACON
04:36PM 32.8694 -117.2533 141° Southeast 295 339 9,300 -1,380 Descending Los Angeles Center
04:37PM 32.8089 -117.2031 145° Southeast 269 310 7,800 -1,380 Descending Los Angeles Center
04:38PM 32.7906 -117.1114 103° East 258 297 6,500 -1,260 Descending Los Angeles Center
04:38PM 32.7833 -117.0667 101° East 225 259 5,700 -1,260 Descending Southern California TRACON
04:39PM 32.7500 -117.0000 121° Southeast 216 249 4,400 -1,080 Descending Southern California TRACON
04:40PM 32.7000 -117.0000 180° South 219 252 3,600 -840 Descending Southern California TRACON
04:41PM 32.7000 -117.0500 270° West 194 223 2,800 -840 Descending Southern California TRACON
04:42PM 32.7167 -117.1000 292° West 141 162 2,000 -1,020 Descending Southern California TRACON
04:43PM 32.7167 -117.1500 270° West 130 150 800 -1,080 Descending Southern California TRACON
04:44PM 32.7272 -117.1653 309° West 130 150 400 -360 Descending Los Angeles Center
04:45PM 32.7347 -117.2053 283° West 129 148 300 -120 Descending Los Angeles Center
04:47PM 32.7336 -117.1897 253° West  Level Estimated